createdAt,value
2022-08-21T00:02:18.024Z,19.50
2022-08-21T00:07:22.687Z,19.40
2022-08-21T00:12:29.395Z,19.30
2022-08-21T00:17:34.608Z,19.30
2022-08-21T00:22:38.579Z,19.20
2022-08-21T00:27:44.316Z,19.10
2022-08-21T00:32:49.548Z,19.10
2022-08-21T00:37:53.394Z,19.00
2022-08-21T00:42:57.029Z,19.00
2022-08-21T00:48:02.297Z,19.00
2022-08-21T00:53:08.770Z,18.90
2022-08-21T00:58:14.591Z,19.00
2022-08-21T01:03:26.199Z,18.90
2022-08-21T01:08:31.188Z,18.80
2022-08-21T01:13:39.409Z,18.70
2022-08-21T01:18:45.164Z,18.70
2022-08-21T01:23:53.240Z,18.70
2022-08-21T01:29:01.362Z,18.70
2022-08-21T01:34:06.179Z,18.70
2022-08-21T01:39:11.352Z,18.60
2022-08-21T01:44:14.921Z,18.60
2022-08-21T01:49:18.968Z,18.60
2022-08-21T01:54:24.408Z,18.50
2022-08-21T01:59:28.739Z,18.50
2022-08-21T02:04:32.761Z,18.50
2022-08-21T02:09:37.802Z,18.50
2022-08-21T02:14:43.893Z,18.30
2022-08-21T02:19:47.509Z,18.20
2022-08-21T02:24:54.639Z,18.20
2022-08-21T02:29:59.841Z,18.20
2022-08-21T02:35:03.249Z,18.10
2022-08-21T02:40:12.517Z,18.10
2022-08-21T02:45:18.353Z,18.00
2022-08-21T02:50:24.133Z,18.00
2022-08-21T02:55:33.926Z,18.00
2022-08-21T03:00:38.703Z,18.00
2022-08-21T03:05:42.400Z,18.00
2022-08-21T03:10:49.234Z,18.00
2022-08-21T03:15:52.989Z,18.00
2022-08-21T03:20:56.627Z,18.00
2022-08-21T03:26:01.631Z,17.90
2022-08-21T03:31:06.650Z,17.90
2022-08-21T03:36:10.996Z,18.00
2022-08-21T03:41:16.041Z,17.90
2022-08-21T03:46:19.706Z,18.00
2022-08-21T03:51:23.305Z,18.00
2022-08-21T03:56:28.312Z,18.00
2022-08-21T04:01:33.162Z,18.00
2022-08-21T04:06:37.980Z,18.00
2022-08-21T04:11:43.089Z,18.00
2022-08-21T04:16:46.774Z,18.10
2022-08-21T04:21:50.665Z,18.10
2022-08-21T04:26:57.687Z,18.00
2022-08-21T04:32:01.260Z,17.90
2022-08-21T04:37:05.112Z,18.00
2022-08-21T04:42:10.480Z,18.00
2022-08-21T04:47:14.054Z,18.00
2022-08-21T04:52:23.305Z,18.10
2022-08-21T04:57:36.409Z,18.10
2022-08-21T05:02:55.346Z,18.10
2022-08-21T05:08:01.425Z,18.10
2022-08-21T05:13:08.084Z,18.10
2022-08-21T05:18:11.923Z,18.10
2022-08-21T05:23:16.527Z,18.10
2022-08-21T05:28:21.283Z,18.10
2022-08-21T05:33:25.023Z,18.10
2022-08-21T05:38:29.593Z,18.10
2022-08-21T05:43:37.158Z,18.30
2022-08-21T05:48:40.754Z,18.20
2022-08-21T05:53:45.784Z,18.20
2022-08-21T05:58:50.733Z,18.20
2022-08-21T06:03:54.399Z,18.20
2022-08-21T06:09:00.816Z,18.20
2022-08-21T06:14:07.421Z,18.30
2022-08-21T06:19:10.990Z,18.40
2022-08-21T06:24:14.887Z,18.40
2022-08-21T06:29:20.899Z,18.50
2022-08-21T06:34:24.605Z,18.50
2022-08-21T06:39:30.589Z,18.70
2022-08-21T06:44:37.348Z,18.80
2022-08-21T06:49:41.123Z,18.90
2022-08-21T06:54:44.909Z,19.00
2022-08-21T06:59:49.865Z,19.10
2022-08-21T07:04:53.465Z,19.10
2022-08-21T07:09:57.070Z,19.10
2022-08-21T07:15:02.103Z,19.20
2022-08-21T07:20:06.905Z,19.40
2022-08-21T07:25:10.464Z,19.50
2022-08-21T07:30:15.745Z,19.60
2022-08-21T07:35:19.869Z,19.70
2022-08-21T07:40:23.585Z,19.70
2022-08-21T07:45:28.726Z,19.80
2022-08-21T07:50:32.580Z,19.90
2022-08-21T07:55:36.601Z,20.10
2022-08-21T08:00:42.251Z,20.20
2022-08-21T08:05:45.875Z,20.20
2022-08-21T08:10:50.485Z,20.30
2022-08-21T08:15:55.704Z,20.30
2022-08-21T08:20:59.295Z,20.30
2022-08-21T08:26:04.472Z,20.30
2022-08-21T08:31:09.733Z,20.40
2022-08-21T08:36:18.337Z,20.40
2022-08-21T08:41:30.722Z,20.60
2022-08-21T08:46:41.115Z,20.80
2022-08-21T08:51:52.891Z,21.10
2022-08-21T08:56:57.012Z,21.30
2022-08-21T09:02:02.435Z,21.70
2022-08-21T09:07:18.082Z,22.00
2022-08-21T09:12:34.550Z,22.20
2022-08-21T09:18:07.977Z,22.30
2022-08-21T09:23:22.292Z,22.40
2022-08-21T09:28:25.940Z,22.50
2022-08-21T09:33:31.261Z,22.40
2022-08-21T09:38:37.759Z,22.40
2022-08-21T09:43:41.337Z,22.30
2022-08-21T09:48:49.456Z,22.40
2022-08-21T09:53:57.421Z,22.40
2022-08-21T09:59:01.077Z,22.50
2022-08-21T10:04:09.235Z,22.60
2022-08-21T10:09:20.983Z,22.80
2022-08-21T10:14:40.044Z,22.80
2022-08-21T10:19:55.133Z,22.60
2022-08-21T10:25:07.923Z,22.40
2022-08-21T10:30:16.164Z,22.20
2022-08-21T10:35:26.682Z,21.80
2022-08-21T10:40:36.589Z,21.50
2022-08-21T10:45:53.748Z,21.50
2022-08-21T10:51:05.604Z,21.60
2022-08-21T10:56:18.037Z,21.60
2022-08-21T11:01:29.593Z,21.70
2022-08-21T11:06:35.981Z,21.70
2022-08-21T11:11:55.259Z,21.70
2022-08-21T11:17:13.258Z,21.70
2022-08-21T11:22:24.746Z,21.70
2022-08-21T11:27:32.569Z,21.60
2022-08-21T11:33:02.518Z,21.50
2022-08-21T11:38:20.303Z,21.40
2022-08-21T11:43:35.721Z,21.20
2022-08-21T11:48:47.727Z,21.00
2022-08-21T11:53:59.242Z,20.70
2022-08-21T11:59:07.343Z,20.60
2022-08-21T12:04:19.590Z,20.50
2022-08-21T12:09:37.634Z,20.40
2022-08-21T12:14:44.515Z,20.60
2022-08-21T12:19:58.727Z,20.70
2022-08-21T12:25:09.870Z,20.70
2022-08-21T12:30:27.322Z,20.60
2022-08-21T12:35:40.371Z,20.60
2022-08-21T12:40:51.033Z,20.80
2022-08-21T12:45:54.618Z,20.80
2022-08-21T12:51:01.595Z,20.90
2022-08-21T12:56:10.748Z,21.00
2022-08-21T13:01:21.684Z,21.00
2022-08-21T13:06:27.393Z,21.20
2022-08-21T13:11:35.297Z,21.40
2022-08-21T13:16:38.925Z,21.50
2022-08-21T13:21:45.467Z,21.50
2022-08-21T13:26:52.188Z,21.50
2022-08-21T13:31:57.676Z,21.60
2022-08-21T13:37:05.301Z,21.60
2022-08-21T13:42:14.751Z,21.60
2022-08-21T13:47:20.008Z,21.40
2022-08-21T13:52:26.709Z,21.40
2022-08-21T13:57:33.702Z,21.30
2022-08-21T14:02:41.609Z,21.30
2022-08-21T14:07:45.850Z,21.30
2022-08-21T14:12:55.550Z,21.20
2022-08-21T14:18:11.693Z,21.10
2022-08-21T14:23:26.416Z,21.00
2022-08-21T14:28:34.164Z,20.90
2022-08-21T14:33:37.751Z,20.90
2022-08-21T14:38:42.584Z,20.90
2022-08-21T14:43:59.872Z,20.80
2022-08-21T14:49:13.078Z,20.80
2022-08-21T14:54:18.097Z,21.00
2022-08-21T14:59:24.374Z,21.10
2022-08-21T15:04:28.000Z,21.30
2022-08-21T15:09:31.565Z,21.20
2022-08-21T15:14:41.088Z,21.10
2022-08-21T15:19:44.678Z,21.10
2022-08-21T15:24:48.219Z,21.20
2022-08-21T15:29:55.175Z,21.20
2022-08-21T15:35:00.170Z,21.30
2022-08-21T15:40:05.683Z,21.20
2022-08-21T15:45:13.810Z,21.10
2022-08-21T15:50:17.963Z,21.00
2022-08-21T15:55:21.724Z,21.10
2022-08-21T16:00:27.058Z,21.10
2022-08-21T16:05:30.646Z,21.00
2022-08-21T16:10:34.228Z,20.90
2022-08-21T16:15:39.400Z,20.80
2022-08-21T16:20:43.013Z,20.80
2022-08-21T16:25:47.548Z,20.90
2022-08-21T16:30:52.719Z,21.00
2022-08-21T16:35:56.501Z,21.10
2022-08-21T16:41:01.278Z,21.10
2022-08-21T16:46:06.549Z,21.10
2022-08-21T16:51:10.089Z,21.00
2022-08-21T16:56:15.974Z,21.00
2022-08-21T17:01:24.771Z,20.90
2022-08-21T17:06:30.331Z,21.00
2022-08-21T17:11:38.387Z,21.00
2022-08-21T17:16:47.881Z,21.00
2022-08-21T17:21:51.708Z,20.90
2022-08-21T17:26:57.168Z,21.10
2022-08-21T17:32:03.732Z,21.10
2022-08-21T17:37:07.781Z,21.10
2022-08-21T17:42:13.684Z,21.10
2022-08-21T17:47:18.837Z,21.10
2022-08-21T17:52:23.009Z,21.00
2022-08-21T17:57:28.199Z,21.00
2022-08-21T18:02:33.229Z,20.90
2022-08-21T18:07:36.922Z,20.90
2022-08-21T18:12:42.978Z,20.90
2022-08-21T18:17:51.453Z,20.90
2022-08-21T18:22:55.458Z,21.00
2022-08-21T18:28:09.337Z,20.90
2022-08-21T18:33:15.318Z,20.90
2022-08-21T18:38:21.164Z,20.80
2022-08-21T18:43:25.360Z,20.80
2022-08-21T18:48:30.583Z,20.80
2022-08-21T18:53:34.520Z,20.80
2022-08-21T18:58:40.333Z,20.70
2022-08-21T19:03:45.311Z,20.70
2022-08-21T19:08:48.889Z,20.70
2022-08-21T19:13:54.736Z,20.70
2022-08-21T19:19:01.059Z,20.70
2022-08-21T19:24:17.661Z,20.60
2022-08-21T19:29:22.477Z,20.70
2022-08-21T19:34:41.151Z,20.70
2022-08-21T19:39:48.597Z,20.70
2022-08-21T19:44:57.552Z,20.70
2022-08-21T19:50:17.775Z,20.70
2022-08-21T19:55:24.846Z,20.70
2022-08-21T20:00:28.625Z,20.70
2022-08-21T20:05:39.525Z,20.70
2022-08-21T20:10:44.432Z,20.70
2022-08-21T20:15:47.832Z,20.70
2022-08-21T20:20:53.095Z,20.70
2022-08-21T20:25:57.121Z,20.60
2022-08-21T20:31:00.993Z,20.60
2022-08-21T20:36:08.661Z,20.60
2022-08-21T20:41:21.095Z,20.60
2022-08-21T20:46:35.884Z,20.60
2022-08-21T20:51:43.985Z,20.60
2022-08-21T20:56:51.419Z,20.60
2022-08-21T21:02:00.531Z,20.60
2022-08-21T21:07:09.264Z,20.60
2022-08-21T21:12:27.933Z,20.60
2022-08-21T21:17:37.137Z,20.60
2022-08-21T21:22:49.388Z,20.60
2022-08-21T21:27:58.184Z,20.60
2022-08-21T21:33:01.954Z,20.50
2022-08-21T21:38:16.043Z,20.50
2022-08-21T21:43:35.890Z,20.50
2022-08-21T21:48:51.813Z,20.50
2022-08-21T21:54:09.975Z,20.50
2022-08-21T21:59:35.025Z,20.50
2022-08-21T22:04:55.972Z,20.50
2022-08-21T22:10:19.626Z,20.50
2022-08-21T22:15:32.095Z,20.50
2022-08-21T22:20:41.552Z,20.40
2022-08-21T22:25:53.402Z,20.40
2022-08-21T22:31:11.657Z,20.40
2022-08-21T22:36:21.288Z,20.50
2022-08-21T22:41:32.193Z,20.50
2022-08-21T22:46:43.690Z,20.50
2022-08-21T22:51:48.692Z,20.50
2022-08-21T22:57:01.894Z,20.50
2022-08-21T23:02:11.351Z,20.50
2022-08-21T23:07:43.722Z,20.50
2022-08-21T23:12:54.235Z,20.50
2022-08-21T23:18:07.519Z,20.40
2022-08-21T23:23:21.095Z,20.40
2022-08-21T23:28:39.907Z,20.50
2022-08-21T23:34:06.045Z,20.40
2022-08-21T23:39:24.981Z,20.40
2022-08-21T23:44:41.060Z,20.40
2022-08-21T23:50:13.851Z,20.40
2022-08-21T23:55:35.984Z,20.40
